^^
Grace C. Lehan Memorial Weather Station Historical Data
Daily Summary for July 14, 2021 Units:  Both    English   Metric
Daily Weekly Monthly Yearly
  High: Low: Average:
Temperature: 89.5 °F /  31.9 °C 72.2 °F /  22.3 °C 80.1 °F /  26.7 °C
Dew Point: 78.2 °F /  25.7 °C 58.1 °F /  14.5 °C 70.2 °F /  21.2 °C
Humidity: 93.7% 46.7% 73%
Wind Speed: 5.7mph /  9.2km/h - 0.9mph /  1.4km/h
Wind Gust: 17mph /  27.4km/h - -
Wind- - WNW
Pressure: 30.11 in /  1019.5 hPa 29.94 in /  1013.8 hPa -
Precipitation: 0.23 in /  5.84 mm    
 
 
Tabular Data for July 14, 2021
Time Temperature Dew Point Pressure Wind Wind Speed Wind Gust Humidity Rainfall Rate (Hourly) solar
00:00 81.7 °F /  27.6 °C 74.6 °F /  23.7 °C 29.97in /  1014.8hPa Calm     79% 0.00in /  0mm 0 W/m2
00:09 81.6 °F /  27.6 °C 74.1 °F /  23.4 °C 29.96in /  1014.4hPa Calm     78% 0.00in /  0mm 0 W/m2
00:14 81.6 °F /  27.6 °C 74.4 °F /  23.6 °C 29.97in /  1014.8hPa Calm     78.9% 0.00in /  0mm 0 W/m2
00:19 81.5 °F /  27.5 °C 74.4 °F /  23.6 °C 29.96in /  1014.4hPa Calm     79% 0.00in /  0mm 0 W/m2
00:24 81.5 °F /  27.5 °C 74.3 °F /  23.5 °C 29.96in /  1014.4hPa Calm     79% 0.00in /  0mm 0 W/m2
00:29 81.3 °F /  27.4 °C 74.2 °F /  23.4 °C 29.96in /  1014.4hPa Calm     79% 0.00in /  0mm 0 W/m2
00:34 81.2 °F /  27.3 °C 74.2 °F /  23.4 °C 29.96in /  1014.4hPa Calm     79.3% 0.00in /  0mm 0 W/m2
00:39 81.1 °F /  27.3 °C 74.3 °F /  23.5 °C 29.95in /  1014.1hPa Calm     80% 0.00in /  0mm 0 W/m2
00:44 80.9 °F /  27.2 °C 74.2 °F /  23.4 °C 29.95in /  1014.1hPa Calm     80% 0.00in /  0mm 0 W/m2
00:49 80.8 °F /  27.1 °C 74 °F /  23.3 °C 29.95in /  1014.1hPa Calm     80% 0.00in /  0mm 0 W/m2
00:54 80.6 °F /  27 °C 74 °F /  23.3 °C 29.95in /  1014.1hPa Calm     80.3% 0.00in /  0mm 0 W/m2
00:59 80.4 °F /  26.9 °C 74.1 °F /  23.4 °C 29.95in /  1014.1hPa Calm     81% 0.00in /  0mm 0 W/m2
01:04 80.3 °F /  26.8 °C 73.9 °F /  23.3 °C 29.95in /  1014.1hPa Calm     81% 0.00in /  0mm 0 W/m2
01:09 80.2 °F /  26.8 °C 73.8 °F /  23.2 °C 29.95in /  1014.1hPa Calm     81% 0.00in /  0mm 0 W/m2
01:14 80.1 °F /  26.7 °C 73.9 °F /  23.3 °C 29.95in /  1014.1hPa Calm     81.4% 0.00in /  0mm 0 W/m2
01:19 80 °F /  26.7 °C 74 °F /  23.3 °C 29.95in /  1014.1hPa Calm     82% 0.00in /  0mm 0 W/m2
01:24 79.8 °F /  26.6 °C 73.9 °F /  23.3 °C 29.95in /  1014.1hPa Calm     82% 0.00in /  0mm 0 W/m2
01:29 79.7 °F /  26.5 °C 74 °F /  23.3 °C 29.94in /  1013.8hPa Calm     82.7% 0.00in /  0mm 0 W/m2
01:34 79.7 °F /  26.5 °C 74 °F /  23.3 °C 29.94in /  1013.8hPa Calm     83% 0.00in /  0mm 0 W/m2
01:39 79.6 °F /  26.4 °C 74 °F /  23.3 °C 29.95in /  1014.1hPa Calm     83% 0.00in /  0mm 0 W/m2
01:44 79.5 °F /  26.4 °C 73.9 °F /  23.3 °C 29.94in /  1013.8hPa Calm     83% 0.00in /  0mm 0 W/m2
01:49 79.4 °F /  26.3 °C 73.8 °F /  23.2 °C 29.94in /  1013.8hPa Calm     83% 0.00in /  0mm 0 W/m2
01:54 79.3 °F /  26.3 °C 73.7 °F /  23.2 °C 29.94in /  1013.8hPa Calm     83% 0.00in /  0mm 0 W/m2
01:59 79.2 °F /  26.2 °C 73.6 °F /  23.1 °C 29.94in /  1013.8hPa Calm     83% 0.00in /  0mm 0 W/m2
02:04 79.1 °F /  26.2 °C 73.7 °F /  23.2 °C 29.94in /  1013.8hPa Calm     83.5% 0.00in /  0mm 0 W/m2
02:09 79 °F /  26.1 °C 73.8 °F /  23.2 °C 29.94in /  1013.8hPa Calm     84% 0.00in /  0mm 0 W/m2
02:14 78.9 °F /  26.1 °C 73.7 °F /  23.2 °C 29.94in /  1013.8hPa Calm     84% 0.00in /  0mm 0 W/m2
02:19 78.8 °F /  26 °C 73.6 °F /  23.1 °C 29.94in /  1013.8hPa Calm     84% 0.00in /  0mm 0 W/m2
02:24 78.7 °F /  25.9 °C 73.5 °F /  23.1 °C 29.94in /  1013.8hPa Calm     84% 0.00in /  0mm 0 W/m2
02:29 78.6 °F /  25.9 °C 73.5 °F /  23.1 °C 29.94in /  1013.8hPa Calm     84.3% 0.00in /  0mm 0 W/m2
02:34 78.5 °F /  25.8 °C 73.6 °F /  23.1 °C 29.94in /  1013.8hPa Calm     85% 0.00in /  0mm 0 W/m2
02:39 78.4 °F /  25.8 °C 73.5 °F /  23.1 °C 29.94in /  1013.8hPa Calm     85% 0.00in /  0mm 0 W/m2
02:44 78.4 °F /  25.8 °C 73.5 °F /  23.1 °C 29.94in /  1013.8hPa Calm     85% 0.00in /  0mm 0 W/m2
02:49 78.3 °F /  25.7 °C 73.5 °F /  23.1 °C 29.94in /  1013.8hPa Calm     85.2% 0.00in /  0mm 0 W/m2
02:54 78.2 °F /  25.7 °C 73.7 °F /  23.2 °C 29.94in /  1013.8hPa Calm     86% 0.00in /  0mm 0 W/m2
02:59 78.2 °F /  25.7 °C 73.6 °F /  23.1 °C 29.94in /  1013.8hPa Calm     86% 0.00in /  0mm 0 W/m2
03:04 78.1 °F /  25.6 °C 73.6 °F /  23.1 °C 29.94in /  1013.8hPa Calm     86% 0.00in /  0mm 0 W/m2
03:09 78 °F /  25.6 °C 73.5 °F /  23.1 °C 29.94in /  1013.8hPa Calm     86% 0.00in /  0mm 0 W/m2
03:14 77.9 °F /  25.5 °C 73.4 °F /  23 °C 29.94in /  1013.8hPa Calm     86% 0.00in /  0mm 0 W/m2
03:19 77.8 °F /  25.4 °C 73.3 °F /  22.9 °C 29.94in /  1013.8hPa Calm     86% 0.00in /  0mm 0 W/m2
03:24 77.7 °F /  25.4 °C 73.3 °F /  22.9 °C 29.94in /  1013.8hPa Calm     86.3% 0.00in /  0mm 0 W/m2
03:29 77.6 °F /  25.3 °C 73.5 °F /  23.1 °C 29.94in /  1013.8hPa Calm     87% 0.00in /  0mm 0 W/m2
03:34 77.5 °F /  25.3 °C 73.4 °F /  23 °C 29.94in /  1013.8hPa Calm     87% 0.00in /  0mm 0 W/m2
03:39 77.5 °F /  25.3 °C 73.3 °F /  22.9 °C 29.95in /  1014.1hPa Calm     87% 0.00in /  0mm 0 W/m2
03:44 77.4 °F /  25.2 °C 73.2 °F /  22.9 °C 29.95in /  1014.1hPa Calm     87% 0.00in /  0mm 0 W/m2
03:49 77.3 °F /  25.2 °C 73.1 °F /  22.8 °C 29.95in /  1014.1hPa Calm     87% 0.00in /  0mm 0 W/m2
03:54 77.2 °F /  25.1 °C 73 °F /  22.8 °C 29.95in /  1014.1hPa Calm     87% 0.00in /  0mm 0 W/m2
03:59 77.1 °F /  25.1 °C 73.1 °F /  22.8 °C 29.95in /  1014.1hPa Calm     87.4% 0.00in /  0mm 0 W/m2
04:00 77.1 °F /  25.1 °C 73.3 °F /  22.9 °C 29.95in /  1014.1hPa Calm     88% 0.00in /  0mm 0 W/m2
04:09 77 °F /  25 °C 73.2 °F /  22.9 °C 29.95in /  1014.1hPa Calm     88% 0.00in /  0mm 0 W/m2
04:14 77 °F /  25 °C 73.2 °F /  22.9 °C 29.95in /  1014.1hPa Calm     88% 0.00in /  0mm 0 W/m2
04:19 76.9 °F /  24.9 °C 73.1 °F /  22.8 °C 29.95in /  1014.1hPa Calm     88% 0.00in /  0mm 0 W/m2
04:24 76.9 °F /  24.9 °C 73.1 °F /  22.8 °C 29.95in /  1014.1hPa Calm     88% 0.00in /  0mm 0 W/m2
04:29 76.9 °F /  24.9 °C 73.1 °F /  22.8 °C 29.95in /  1014.1hPa Calm     88% 0.00in /  0mm 0 W/m2
04:34 76.9 °F /  24.9 °C 73.1 °F /  22.8 °C 29.95in /  1014.1hPa Calm     88% 0.00in /  0mm 0 W/m2
04:39 76.9 °F /  24.9 °C 73.1 °F /  22.8 °C 29.95in /  1014.1hPa Calm     88% 0.00in /  0mm 0 W/m2
04:44 76.8 °F /  24.9 °C 73 °F /  22.8 °C 29.95in /  1014.1hPa Calm     88% 0.00in /  0mm 0 W/m2
04:49 76.8 °F /  24.9 °C 73 °F /  22.8 °C 29.95in /  1014.1hPa Calm     88% 0.00in /  0mm 0 W/m2
04:54 76.8 °F /  24.9 °C 73.3 °F /  22.9 °C 29.95in /  1014.1hPa Calm     88.8% 0.00in /  0mm 0 W/m2
04:59 76.8 °F /  24.9 °C 73.3 °F /  22.9 °C 29.96in /  1014.4hPa Calm     89% 0.00in /  0mm 0 W/m2
05:04 76.8 °F /  24.9 °C 73.3 °F /  22.9 °C 29.96in /  1014.4hPa Calm     89% 0.00in /  0mm 0 W/m2
05:09 76.8 °F /  24.9 °C 73.3 °F /  22.9 °C 29.96in /  1014.4hPa Calm     89% 0.00in /  0mm 0 W/m2
05:14 76.7 °F /  24.8 °C 73.2 °F /  22.9 °C 29.96in /  1014.4hPa Calm     89% 0.00in /  0mm 0 W/m2
05:19 76.7 °F /  24.8 °C 73.2 °F /  22.9 °C 29.96in /  1014.4hPa Calm     89% 0.00in /  0mm 0 W/m2
05:24 76.7 °F /  24.8 °C 73.2 °F /  22.9 °C 29.96in /  1014.4hPa Calm     89% 0.00in /  0mm 0 W/m2
05:29 76.6 °F /  24.8 °C 73.1 °F /  22.8 °C 29.96in /  1014.4hPa Calm     89% 0.00in /  0mm 0 W/m2
05:34 76.5 °F /  24.7 °C 73.1 °F /  22.8 °C 29.96in /  1014.4hPa Calm     89% 0.00in /  0mm 0 W/m2
05:37 76.5 °F /  24.7 °C 73 °F /  22.8 °C 29.96in /  1014.4hPa Calm     89% 0.00in /  0mm 0 W/m2
06:00 76.2 °F /  24.6 °C 72.7 °F /  22.6 °C 29.97in /  1014.8hPa Calm     89% 0.00in /  0mm 0 W/m2
06:30 75.8 °F /  24.3 °C 72.3 °F /  22.4 °C 29.97in /  1014.8hPa Calm     89% 0.00in /  0mm 6 W/m2
07:00 76.8 °F /  24.9 °C 73 °F /  22.8 °C 29.97in /  1014.8hPa Calm     88% 0.00in /  0mm 80 W/m2
07:30 82.6 °F /  28.1 °C 74.7 °F /  23.7 °C 29.97in /  1014.8hPa Calm     77% 0.00in /  0mm 164 W/m2
08:04 84.1 °F /  28.9 °C 73.3 °F /  22.9 °C 29.98in /  1015.1hPa Calm     70.2% 0.00in /  0mm 130 W/m2
08:09 84.1 °F /  28.9 °C 73.6 °F /  23.1 °C 29.98in /  1015.1hPa Calm     71% 0.00in /  0mm 144 W/m2
08:14 83.9 °F /  28.8 °C 73.5 °F /  23.1 °C 29.98in /  1015.1hPa Calm   2mph /  3.2km/h 71.1% 0.00in /  0mm 144 W/m2
08:19 83.6 °F /  28.7 °C 73 °F /  22.8 °C 29.99in /  1015.5hPa Calm   2mph /  3.2km/h 70.5% 0.00in /  0mm 118 W/m2
08:24 83.3 °F /  28.5 °C 72.7 °F /  22.6 °C 29.99in /  1015.5hPa West 0.6mph /  1km/h 5mph /  8km/h 70.5% 0.00in /  0mm 86 W/m2
08:29 83 °F /  28.3 °C 72.6 °F /  22.6 °C 29.99in /  1015.5hPa WNW 0.2mph /  0.3km/h 5mph /  8km/h 71% 0.00in /  0mm 186 W/m2
08:34 82.7 °F /  28.2 °C 72.5 °F /  22.5 °C 29.99in /  1015.5hPa Calm   5mph /  8km/h 71.2% 0.00in /  0mm 183 W/m2
08:39 82.8 °F /  28.2 °C 72.9 °F /  22.7 °C 29.99in /  1015.5hPa WNW 0.1mph /  0.2km/h 2mph /  3.2km/h 72.1% 0.00in /  0mm 480 W/m2
08:44 83 °F /  28.3 °C 72.8 °F /  22.7 °C 29.99in /  1015.5hPa Calm   2mph /  3.2km/h 71.4% 0.00in /  0mm 497 W/m2
08:49 83.4 °F /  28.6 °C 73.8 °F /  23.2 °C 29.99in /  1015.5hPa Calm   2mph /  3.2km/h 72.7% 0.00in /  0mm 497 W/m2
08:54 83.6 °F /  28.7 °C 72.8 °F /  22.7 °C 29.99in /  1015.5hPa Calm   2mph /  3.2km/h 70% 0.00in /  0mm 111 W/m2
08:59 83.6 °F /  28.7 °C 73 °F /  22.8 °C 29.99in /  1015.5hPa Calm   2mph /  3.2km/h 70.6% 0.00in /  0mm 98 W/m2
09:04 83.5 °F /  28.6 °C 73.3 °F /  22.9 °C 29.99in /  1015.5hPa Calm   2mph /  3.2km/h 71.5% 0.00in /  0mm 130 W/m2
09:09 83.4 °F /  28.6 °C 73.4 °F /  23 °C 29.99in /  1015.5hPa Calm   1mph /  1.6km/h 71.9% 0.00in /  0mm 130 W/m2
09:14 83.2 °F /  28.4 °C 73.3 °F /  22.9 °C 30.00in /  1015.8hPa Calm   2mph /  3.2km/h 72% 0.00in /  0mm 69 W/m2
09:19 83.1 °F /  28.4 °C 74 °F /  23.3 °C 30.01in /  1016.1hPa WNW 0.3mph /  0.5km/h 3mph /  4.8km/h 74.3% 0.04in /  1.02mm 39 W/m2
09:24 82.8 °F /  28.2 °C 75 °F /  23.9 °C 30.02in /  1016.5hPa Calm   3mph /  4.8km/h 77.5% 0.04in /  1.02mm 39 W/m2
09:29 82.1 °F /  27.8 °C 74.9 °F /  23.8 °C 30.02in /  1016.5hPa WNW 0.2mph /  0.3km/h 3mph /  4.8km/h 78.8% 0.05in /  1.27mm 32 W/m2
09:34 81.2 °F /  27.3 °C 74.4 °F /  23.6 °C 30.02in /  1016.5hPa WSW 0.3mph /  0.5km/h 5mph /  8km/h 79.9% 0.07in /  1.78mm 21 W/m2
09:39 80.4 °F /  26.9 °C 74.3 °F /  23.5 °C 30.02in /  1016.5hPa Calm   5mph /  8km/h 81.6% 0.09in /  2.29mm 18 W/m2
09:44 79.7 °F /  26.5 °C 74.1 °F /  23.4 °C 30.02in /  1016.5hPa Calm   5mph /  8km/h 83% 0.11in /  2.79mm 16 W/m2
09:49 79 °F /  26.1 °C 74 °F /  23.3 °C 30.02in /  1016.5hPa Calm   5mph /  8km/h 84.6% 0.13in /  3.3mm 18 W/m2
09:54 78.5 °F /  25.8 °C 73.8 °F /  23.2 °C 30.02in /  1016.5hPa Calm   5mph /  8km/h 85.5% 0.15in /  3.81mm 26 W/m2
09:59 78.1 °F /  25.6 °C 73.7 °F /  23.2 °C 30.02in /  1016.5hPa Calm   5mph /  8km/h 86.3% 0.16in /  4.06mm 51 W/m2
10:04 77.7 °F /  25.4 °C 73.7 °F /  23.2 °C 30.02in /  1016.5hPa Calm   5mph /  8km/h 87.6% 0.16in /  4.06mm 70 W/m2
10:09 77.4 °F /  25.2 °C 73.8 °F /  23.2 °C 30.02in /  1016.5hPa Calm   1mph /  1.6km/h 88.8% 0.16in /  4.06mm 74 W/m2
10:14 77.3 °F /  25.2 °C 74.1 °F /  23.4 °C 30.03in /  1016.8hPa Calm   1mph /  1.6km/h 89.9% 0.17in /  4.32mm 63 W/m2
10:19 77.2 °F /  25.1 °C 74 °F /  23.3 °C 30.03in /  1016.8hPa Calm   1mph /  1.6km/h 90% 0.17in /  4.32mm 49 W/m2
10:24 77 °F /  25 °C 74.1 °F /  23.4 °C 30.03in /  1016.8hPa Calm   1mph /  1.6km/h 90.9% 0.18in /  4.57mm 46 W/m2
10:29 76.7 °F /  24.8 °C 73.9 °F /  23.3 °C 30.03in /  1016.8hPa Calm   1mph /  1.6km/h 90.8% 0.19in /  4.83mm 42 W/m2
10:34 76.5 °F /  24.7 °C 73.7 °F /  23.2 °C 30.03in /  1016.8hPa Calm   1mph /  1.6km/h 91% 0.19in /  4.83mm 32 W/m2
10:39 76.3 °F /  24.6 °C 73.5 °F /  23.1 °C 30.02in /  1016.5hPa Calm     91% 0.16in /  4.06mm 25 W/m2
10:44 76.1 °F /  24.5 °C 73.3 °F /  22.9 °C 30.02in /  1016.5hPa Calm     91% 0.18in /  4.57mm 33 W/m2
10:49 76 °F /  24.4 °C 73.4 °F /  23 °C 30.01in /  1016.1hPa Calm     91.9% 0.18in /  4.57mm 49 W/m2
10:54 75.8 °F /  24.3 °C 73.3 °F /  22.9 °C 30.01in /  1016.1hPa Calm     92% 0.18in /  4.57mm 67 W/m2
10:59 75.8 °F /  24.3 °C 73.4 °F /  23 °C 30.01in /  1016.1hPa Calm     92.2% 0.18in /  4.57mm 130 W/m2
11:04 75.9 °F /  24.4 °C 73.7 °F /  23.2 °C 30.01in /  1016.1hPa Calm     93% 0.18in /  4.57mm 181 W/m2
11:09 76.1 °F /  24.5 °C 73.9 °F /  23.3 °C 30.01in /  1016.1hPa WSW 0.1mph /  0.2km/h 1mph /  1.6km/h 93% 0.07in /  1.78mm 178 W/m2
11:14 76.2 °F /  24.6 °C 74.1 °F /  23.4 °C 30.01in /  1016.1hPa Calm   1mph /  1.6km/h 93% 0.07in /  1.78mm 144 W/m2
11:19 76.4 °F /  24.7 °C 74.4 °F /  23.6 °C 30.01in /  1016.1hPa Calm   1mph /  1.6km/h 93.5% 0.07in /  1.78mm 174 W/m2
11:24 76.5 °F /  24.7 °C 74.3 °F /  23.5 °C 30.01in /  1016.1hPa Calm   1mph /  1.6km/h 93% 0.07in /  1.78mm 338 W/m2
11:29 76.7 °F /  24.8 °C 74.8 °F /  23.8 °C 30.01in /  1016.1hPa Calm   1mph /  1.6km/h 93.7% 0.07in /  1.78mm 274 W/m2
11:34 77 °F /  25 °C 74.9 °F /  23.8 °C 30.01in /  1016.1hPa WSW 0.1mph /  0.2km/h 2mph /  3.2km/h 93.3% 0.07in /  1.78mm 250 W/m2
11:39 76.9 °F /  24.9 °C 74.7 °F /  23.7 °C 30.01in /  1016.1hPa Calm   2mph /  3.2km/h 92.8% 0.04in /  1.02mm 183 W/m2
11:44 77.1 °F /  25.1 °C 74.9 °F /  23.8 °C 30.01in /  1016.1hPa West 0.1mph /  0.2km/h 2mph /  3.2km/h 93% 0.04in /  1.02mm 877 W/m2
11:49 77.8 °F /  25.4 °C 75.8 °F /  24.3 °C 30.01in /  1016.1hPa West 0.7mph /  1.1km/h 3mph /  4.8km/h 93.5% 0.04in /  1.02mm 868 W/m2
11:54 78.4 °F /  25.8 °C 76.2 °F /  24.6 °C 30.01in /  1016.1hPa Calm   3mph /  4.8km/h 93% 0.04in /  1.02mm 923 W/m2
11:59 79.3 °F /  26.3 °C 77 °F /  25 °C 30.01in /  1016.1hPa West 0.9mph /  1.4km/h 6mph /  9.7km/h 92.4% 0.04in /  1.02mm 958 W/m2
12:09 80.3 °F /  26.8 °C 76.4 °F /  24.7 °C 30.01in /  1016.1hPa West 0.9mph /  1.4km/h 4mph /  6.4km/h 88% 0.04in /  1.02mm 524 W/m2
12:14 80.9 °F /  27.2 °C 77.1 °F /  25.1 °C 30.01in /  1016.1hPa Calm   4mph /  6.4km/h 88.4% 0.04in /  1.02mm 882 W/m2
12:19 81.4 °F /  27.4 °C 76.9 °F /  24.9 °C 30.01in /  1016.1hPa WSW 0.8mph /  1.3km/h 5mph /  8km/h 86.2% 0.04in /  1.02mm 877 W/m2
12:24 81.9 °F /  27.7 °C 76.9 °F /  24.9 °C 30.01in /  1016.1hPa WSW 1.4mph /  2.3km/h 8mph /  12.9km/h 84.8% 0.04in /  1.02mm 861 W/m2
12:29 82.2 °F /  27.9 °C 76.3 °F /  24.6 °C 30.01in /  1016.1hPa WSW 1.1mph /  1.8km/h 8mph /  12.9km/h 82.3% 0.04in /  1.02mm 865 W/m2
12:34 82.7 °F /  28.2 °C 76.3 °F /  24.6 °C 30.01in /  1016.1hPa WNW 0.6mph /  1km/h 8mph /  12.9km/h 81.1% 0.04in /  1.02mm 874 W/m2
12:39 83.4 °F /  28.6 °C 77.4 °F /  25.2 °C 30.01in /  1016.1hPa NW 0.8mph /  1.3km/h 4mph /  6.4km/h 82.2% 0.00in /  0mm 872 W/m2
12:44 84.1 °F /  28.9 °C 77.3 °F /  25.2 °C 30.01in /  1016.1hPa NW 0.8mph /  1.3km/h 4mph /  6.4km/h 80.3% 0.00in /  0mm 879 W/m2
12:49 84.7 °F /  29.3 °C 77.6 °F /  25.3 °C 30.00in /  1015.8hPa WNW 0.6mph /  1km/h 4mph /  6.4km/h 79.5% 0.00in /  0mm 893 W/m2
12:54 85.2 °F /  29.6 °C 77.4 °F /  25.2 °C 30.00in /  1015.8hPa WNW 1.4mph /  2.3km/h 7mph /  11.3km/h 77.8% 0.00in /  0mm 909 W/m2
12:59 85.7 °F /  29.8 °C 78.2 °F /  25.7 °C 30.00in /  1015.8hPa NW 0.5mph /  0.8km/h 7mph /  11.3km/h 78.4% 0.00in /  0mm 895 W/m2
13:04 86.1 °F /  30.1 °C 77.2 °F /  25.1 °C 30.00in /  1015.8hPa WNW 4.4mph /  7.1km/h 8mph /  12.9km/h 74.9% 0.00in /  0mm 949 W/m2
13:09 86.2 °F /  30.1 °C 77 °F /  25 °C 30.00in /  1015.8hPa WSW 1mph /  1.6km/h 8mph /  12.9km/h 74.1% 0.00in /  0mm 949 W/m2
13:14 86.5 °F /  30.3 °C 77 °F /  25 °C 30.00in /  1015.8hPa West 0.1mph /  0.2km/h 8mph /  12.9km/h 73.5% 0.00in /  0mm 707 W/m2
13:19 86.7 °F /  30.4 °C 77.7 °F /  25.4 °C 29.99in /  1015.5hPa NW 1.2mph /  1.9km/h 8mph /  12.9km/h 74.6% 0.00in /  0mm 1111 W/m2
13:24 87.2 °F /  30.7 °C 77.5 °F /  25.3 °C 29.99in /  1015.5hPa WNW 3.3mph /  5.3km/h 10mph /  16.1km/h 73% 0.00in /  0mm 1111 W/m2
13:29 87.2 °F /  30.7 °C 76.1 °F /  24.5 °C 29.99in /  1015.5hPa WNW 3.1mph /  5km/h 10mph /  16.1km/h 69.7% 0.00in /  0mm 264 W/m2
13:34 87 °F /  30.6 °C 75.5 °F /  24.2 °C 29.99in /  1015.5hPa NW 3.1mph /  5km/h 10mph /  16.1km/h 68.8% 0.00in /  0mm 432 W/m2
13:39 86.8 °F /  30.4 °C 75.1 °F /  23.9 °C 29.99in /  1015.5hPa NW 2.2mph /  3.5km/h 9mph /  14.5km/h 68.3% 0.00in /  0mm 559 W/m2
13:44 86.7 °F /  30.4 °C 75.5 °F /  24.2 °C 29.99in /  1015.5hPa WNW 2.7mph /  4.3km/h 11mph /  17.7km/h 69.4% 0.00in /  0mm 267 W/m2
13:49 86.5 °F /  30.3 °C 74.7 °F /  23.7 °C 29.99in /  1015.5hPa WNW 3.6mph /  5.8km/h 11mph /  17.7km/h 68% 0.00in /  0mm 316 W/m2
13:54 86.3 °F /  30.2 °C 74.3 °F /  23.5 °C 29.99in /  1015.5hPa West 2.4mph /  3.9km/h 11mph /  17.7km/h 67.5% 0.00in /  0mm 380 W/m2
13:59 86.3 °F /  30.2 °C 74.4 °F /  23.6 °C 29.99in /  1015.5hPa West 1.3mph /  2.1km/h 11mph /  17.7km/h 67.8% 0.00in /  0mm 522 W/m2
14:04 86.5 °F /  30.3 °C 75.1 °F /  23.9 °C 29.99in /  1015.5hPa WNW 1mph /  1.6km/h 11mph /  17.7km/h 68.8% 0.00in /  0mm 464 W/m2
14:09 86.8 °F /  30.4 °C 75.1 °F /  23.9 °C 29.99in /  1015.5hPa West 2.5mph /  4km/h 6mph /  9.7km/h 68.2% 0.00in /  0mm 306 W/m2
14:14 87 °F /  30.6 °C 74.8 °F /  23.8 °C 29.99in /  1015.5hPa WNW 1.6mph /  2.6km/h 6mph /  9.7km/h 67.1% 0.00in /  0mm 276 W/m2
14:19 87 °F /  30.6 °C 74.8 °F /  23.8 °C 29.99in /  1015.5hPa WNW 1.7mph /  2.7km/h 6mph /  9.7km/h 67.1% 0.00in /  0mm 264 W/m2
14:24 87 °F /  30.6 °C 75.2 °F /  24 °C 29.99in /  1015.5hPa WNW 0.9mph /  1.4km/h 6mph /  9.7km/h 68% 0.00in /  0mm 601 W/m2
14:29 87.4 °F /  30.8 °C 75.6 °F /  24.2 °C 29.99in /  1015.5hPa WNW 0.8mph /  1.3km/h 6mph /  9.7km/h 68% 0.00in /  0mm 991 W/m2
14:34 88.1 °F /  31.2 °C 75.7 °F /  24.3 °C 29.99in /  1015.5hPa WSW 2.5mph /  4km/h 7mph /  11.3km/h 67% 0.00in /  0mm 984 W/m2
14:39 88.7 °F /  31.5 °C 74.4 °F /  23.6 °C 29.98in /  1015.1hPa WSW 3.5mph /  5.6km/h 7mph /  11.3km/h 62.9% 0.00in /  0mm 946 W/m2
14:44 88.7 °F /  31.5 °C 74.1 °F /  23.4 °C 29.98in /  1015.1hPa West 2.5mph /  4km/h 7mph /  11.3km/h 62.2% 0.00in /  0mm 262 W/m2
14:49 88.4 °F /  31.3 °C 74 °F /  23.3 °C 29.98in /  1015.1hPa WNW 1.1mph /  1.8km/h 7mph /  11.3km/h 62.5% 0.00in /  0mm 244 W/m2
14:54 88.2 °F /  31.2 °C 74.9 °F /  23.8 °C 29.98in /  1015.1hPa West 1.6mph /  2.6km/h 7mph /  11.3km/h 65% 0.00in /  0mm 214 W/m2
14:59 87.9 °F /  31.1 °C 74.6 °F /  23.7 °C 29.98in /  1015.1hPa West 0.4mph /  0.6km/h 7mph /  11.3km/h 64.8% 0.00in /  0mm 200 W/m2
15:04 87.7 °F /  30.9 °C 74.5 °F /  23.6 °C 29.98in /  1015.1hPa West 1.4mph /  2.3km/h 7mph /  11.3km/h 65% 0.00in /  0mm 197 W/m2
15:09 87.5 °F /  30.8 °C 74.5 °F /  23.6 °C 29.98in /  1015.1hPa West 0.1mph /  0.2km/h 4mph /  6.4km/h 65.5% 0.00in /  0mm 290 W/m2
15:14 87.5 °F /  30.8 °C 75 °F /  23.9 °C 29.98in /  1015.1hPa Calm   4mph /  6.4km/h 66.5% 0.00in /  0mm 367 W/m2
15:19 87.6 °F /  30.9 °C 75.7 °F /  24.3 °C 29.98in /  1015.1hPa West 0.7mph /  1.1km/h 4mph /  6.4km/h 67.8% 0.00in /  0mm 353 W/m2
15:24 87.8 °F /  31 °C 75.3 °F /  24.1 °C 29.98in /  1015.1hPa West 0.3mph /  0.5km/h 4mph /  6.4km/h 66.6% 0.00in /  0mm 858 W/m2
15:29 88.2 °F /  31.2 °C 74.9 °F /  23.8 °C 29.98in /  1015.1hPa West 0.2mph /  0.3km/h 4mph /  6.4km/h 64.9% 0.00in /  0mm 802 W/m2
15:34 88.7 °F /  31.5 °C 74.8 °F /  23.8 °C 29.98in /  1015.1hPa West 1.4mph /  2.3km/h 5mph /  8km/h 63.7% 0.00in /  0mm 726 W/m2
15:39 89.1 °F /  31.7 °C 74.7 °F /  23.7 °C 29.98in /  1015.1hPa WSW 2.4mph /  3.9km/h 7mph /  11.3km/h 62.6% 0.00in /  0mm 737 W/m2
15:44 89.5 °F /  31.9 °C 74.4 °F /  23.6 °C 29.97in /  1014.8hPa WSW 0.7mph /  1.1km/h 7mph /  11.3km/h 61.4% 0.00in /  0mm 737 W/m2
15:49 89.3 °F /  31.8 °C 74.1 °F /  23.4 °C 29.97in /  1014.8hPa WSW 0.2mph /  0.3km/h 7mph /  11.3km/h 60.9% 0.00in /  0mm 105 W/m2
15:54 89 °F /  31.7 °C 74.7 °F /  23.7 °C 29.97in /  1014.8hPa West 2.5mph /  4km/h 7mph /  11.3km/h 62.8% 0.00in /  0mm 105 W/m2
15:59 88.5 °F /  31.4 °C 74.3 °F /  23.5 °C 29.97in /  1014.8hPa West 0.8mph /  1.3km/h 7mph /  11.3km/h 62.8% 0.00in /  0mm 97 W/m2
16:09 87.7 °F /  30.9 °C 74.7 °F /  23.7 °C 29.97in /  1014.8hPa West 1.2mph /  1.9km/h 6mph /  9.7km/h 65.5% 0.00in /  0mm 116 W/m2
16:14 87.3 °F /  30.7 °C 74.5 °F /  23.6 °C 29.97in /  1014.8hPa West 0.8mph /  1.3km/h 6mph /  9.7km/h 65.9% 0.00in /  0mm 116 W/m2
16:19 87 °F /  30.6 °C 74.6 °F /  23.7 °C 29.97in /  1014.8hPa WNW 1.6mph /  2.6km/h 6mph /  9.7km/h 66.7% 0.00in /  0mm 102 W/m2
16:24 86.7 °F /  30.4 °C 74.1 °F /  23.4 °C 29.98in /  1015.1hPa WNW 3.5mph /  5.6km/h 9mph /  14.5km/h 66.2% 0.00in /  0mm 90 W/m2
16:29 86.2 °F /  30.1 °C 73.8 °F /  23.2 °C 29.98in /  1015.1hPa NW 1.5mph /  2.4km/h 9mph /  14.5km/h 66.7% 0.00in /  0mm 130 W/m2
16:34 85.9 °F /  29.9 °C 74.2 °F /  23.4 °C 29.98in /  1015.1hPa WNW 2.8mph /  4.5km/h 9mph /  14.5km/h 68.1% 0.00in /  0mm 130 W/m2
16:39 85.6 °F /  29.8 °C 73.8 °F /  23.2 °C 29.98in /  1015.1hPa WNW 1.5mph /  2.4km/h 7mph /  11.3km/h 68.1% 0.00in /  0mm 142 W/m2
16:44 85.4 °F /  29.7 °C 74.1 °F /  23.4 °C 29.98in /  1015.1hPa NW 1.4mph /  2.3km/h 7mph /  11.3km/h 69% 0.00in /  0mm 172 W/m2
16:49 85.6 °F /  29.8 °C 74.2 °F /  23.4 °C 29.98in /  1015.1hPa NW 3.5mph /  5.6km/h 9mph /  14.5km/h 69% 0.00in /  0mm 167 W/m2
16:54 85.9 °F /  29.9 °C 73.9 °F /  23.3 °C 29.98in /  1015.1hPa WNW 3.9mph /  6.3km/h 13mph /  20.9km/h 67.6% 0.00in /  0mm 139 W/m2
16:59 86.1 °F /  30.1 °C 73 °F /  22.8 °C 29.98in /  1015.1hPa NW 4.9mph /  7.9km/h 13mph /  20.9km/h 65.2% 0.00in /  0mm 105 W/m2
17:04 85.9 °F /  29.9 °C 72.8 °F /  22.7 °C 29.98in /  1015.1hPa WNW 3.9mph /  6.3km/h 13mph /  20.9km/h 65.1% 0.00in /  0mm 127 W/m2
17:09 85.6 °F /  29.8 °C 72.6 °F /  22.6 °C 29.98in /  1015.1hPa NW 3.6mph /  5.8km/h 10mph /  16.1km/h 65.4% 0.00in /  0mm 137 W/m2
17:14 85.3 °F /  29.6 °C 72.6 °F /  22.6 °C 29.98in /  1015.1hPa NW 1.7mph /  2.7km/h 10mph /  16.1km/h 65.9% 0.00in /  0mm 144 W/m2
17:19 85.3 °F /  29.6 °C 72.3 °F /  22.4 °C 29.99in /  1015.5hPa NW 2.8mph /  4.5km/h 10mph /  16.1km/h 65.2% 0.00in /  0mm 95 W/m2
17:24 85.4 °F /  29.7 °C 72 °F /  22.2 °C 29.99in /  1015.5hPa WNW 2.8mph /  4.5km/h 10mph /  16.1km/h 64.3% 0.00in /  0mm 47 W/m2
17:29 85.5 °F /  29.7 °C 72.2 °F /  22.3 °C 29.98in /  1015.1hPa NW 2.9mph /  4.7km/h 12mph /  19.3km/h 64.5% 0.00in /  0mm 40 W/m2
17:34 85.5 °F /  29.7 °C 71.3 °F /  21.8 °C 29.98in /  1015.1hPa WNW 4.7mph /  7.6km/h 12mph /  19.3km/h 62.8% 0.00in /  0mm 39 W/m2
17:39 85.4 °F /  29.7 °C 70.9 °F /  21.6 °C 29.98in /  1015.1hPa NW 3.1mph /  5km/h 10mph /  16.1km/h 62% 0.00in /  0mm 39 W/m2
17:44 85.3 °F /  29.6 °C 70.8 °F /  21.6 °C 29.99in /  1015.5hPa NW 3.4mph /  5.5km/h 15mph /  24.1km/h 61.9% 0.00in /  0mm 39 W/m2
17:49 85.2 °F /  29.6 °C 70 °F /  21.1 °C 29.99in /  1015.5hPa NNW 3.4mph /  5.5km/h 15mph /  24.1km/h 60.4% 0.00in /  0mm 37 W/m2
17:54 84.9 °F /  29.4 °C 67.8 °F /  19.9 °C 29.99in /  1015.5hPa NW 5.7mph /  9.2km/h 15mph /  24.1km/h 56.7% 0.00in /  0mm 37 W/m2
17:59 84.4 °F /  29.1 °C 66.8 °F /  19.3 °C 29.99in /  1015.5hPa NW 4.6mph /  7.4km/h 15mph /  24.1km/h 55.7% 0.00in /  0mm 37 W/m2
18:04 84 °F /  28.9 °C 66.3 °F /  19.1 °C 29.99in /  1015.5hPa NW 4.6mph /  7.4km/h 15mph /  24.1km/h 55.3% 0.00in /  0mm 32 W/m2
18:09 83.7 °F /  28.7 °C 65.2 °F /  18.4 °C 30.00in /  1015.8hPa NW 4.4mph /  7.1km/h 11mph /  17.7km/h 53.9% 0.00in /  0mm 32 W/m2
18:14 83.3 °F /  28.5 °C 63.7 °F /  17.6 °C 30.00in /  1015.8hPa NW 4.8mph /  7.7km/h 11mph /  17.7km/h 51.7% 0.00in /  0mm 30 W/m2
18:19 82.9 °F /  28.3 °C 62.7 °F /  17.1 °C 30.00in /  1015.8hPa NW 5mph /  8km/h 11mph /  17.7km/h 50.6% 0.00in /  0mm 30 W/m2
18:24 82.5 °F /  28.1 °C 62.1 °F /  16.7 °C 30.00in /  1015.8hPa NW 5mph /  8km/h 17mph /  27.4km/h 50.1% 0.00in /  0mm 28 W/m2
18:29 82.1 °F /  27.8 °C 61.5 °F /  16.4 °C 30.00in /  1015.8hPa NW 3mph /  4.8km/h 17mph /  27.4km/h 49.7% 0.00in /  0mm 26 W/m2
18:34 81.8 °F /  27.7 °C 61.4 °F /  16.3 °C 30.00in /  1015.8hPa NW 2.3mph /  3.7km/h 17mph /  27.4km/h 50% 0.00in /  0mm 26 W/m2
18:39 81.6 °F /  27.6 °C 61.5 °F /  16.4 °C 30.00in /  1015.8hPa WNW 2.2mph /  3.5km/h 9mph /  14.5km/h 50.5% 0.00in /  0mm 25 W/m2
18:44 81.4 °F /  27.4 °C 61.2 °F /  16.2 °C 30.01in /  1016.1hPa NW 3mph /  4.8km/h 9mph /  14.5km/h 50.4% 0.00in /  0mm 23 W/m2
18:49 81.2 °F /  27.3 °C 61 °F /  16.1 °C 30.01in /  1016.1hPa NW 3.6mph /  5.8km/h 9mph /  14.5km/h 50.3% 0.00in /  0mm 23 W/m2
18:54 80.9 °F /  27.2 °C 60 °F /  15.6 °C 30.01in /  1016.1hPa WNW 4.1mph /  6.6km/h 11mph /  17.7km/h 49% 0.00in /  0mm 21 W/m2
18:59 80.6 °F /  27 °C 58.7 °F /  14.8 °C 30.01in /  1016.1hPa WNW 4.4mph /  7.1km/h 11mph /  17.7km/h 47.2% 0.00in /  0mm 19 W/m2
19:04 80.4 °F /  26.9 °C 58.1 °F /  14.5 °C 30.01in /  1016.1hPa NW 3.6mph /  5.8km/h 11mph /  17.7km/h 46.7% 0.00in /  0mm 19 W/m2
19:09 80.1 °F /  26.7 °C 58.1 °F /  14.5 °C 30.01in /  1016.1hPa WNW 3.8mph /  6.1km/h 10mph /  16.1km/h 47% 0.00in /  0mm 18 W/m2
19:14 79.9 °F /  26.6 °C 58.4 °F /  14.7 °C 30.01in /  1016.1hPa WNW 3.3mph /  5.3km/h 10mph /  16.1km/h 47.8% 0.00in /  0mm 16 W/m2
19:19 79.7 °F /  26.5 °C 58.9 °F /  14.9 °C 30.01in /  1016.1hPa WNW 1.6mph /  2.6km/h 10mph /  16.1km/h 49% 0.00in /  0mm 14 W/m2
19:24 79.4 °F /  26.3 °C 59.5 °F /  15.3 °C 30.02in /  1016.5hPa NW 1.5mph /  2.4km/h 10mph /  16.1km/h 50.7% 0.00in /  0mm 12 W/m2
19:29 79.1 °F /  26.2 °C 58.9 °F /  14.9 °C 30.02in /  1016.5hPa NW 1.6mph /  2.6km/h 10mph /  16.1km/h 50% 0.00in /  0mm 11 W/m2
19:34 78.8 °F /  26 °C 58.6 °F /  14.8 °C 30.02in /  1016.5hPa NW 1.6mph /  2.6km/h 10mph /  16.1km/h 50% 0.00in /  0mm 9 W/m2
19:39 78.6 °F /  25.9 °C 58.9 °F /  14.9 °C 30.02in /  1016.5hPa NW 2.5mph /  4km/h 10mph /  16.1km/h 51% 0.00in /  0mm 7 W/m2
19:44 78.2 °F /  25.7 °C 58.6 °F /  14.8 °C 30.03in /  1016.8hPa NNW 1.1mph /  1.8km/h 10mph /  16.1km/h 51% 0.00in /  0mm 0 W/m2
19:49 77.9 °F /  25.5 °C 58.8 °F /  14.9 °C 30.03in /  1016.8hPa NW 1.2mph /  1.9km/h 10mph /  16.1km/h 51.8% 0.00in /  0mm 0 W/m2
19:54 77.6 °F /  25.3 °C 58.6 °F /  14.8 °C 30.03in /  1016.8hPa NW 1mph /  1.6km/h 10mph /  16.1km/h 52% 0.00in /  0mm 0 W/m2
19:59 77.3 °F /  25.2 °C 58.8 °F /  14.9 °C 30.03in /  1016.8hPa NW 0.9mph /  1.4km/h 10mph /  16.1km/h 52.8% 0.00in /  0mm 0 W/m2
20:00 77.2 °F /  25.1 °C 58.8 °F /  14.9 °C 30.03in /  1016.8hPa Calm   10mph /  16.1km/h 53% 0.00in /  0mm 0 W/m2
20:09 76.8 °F /  24.9 °C 58.6 °F /  14.8 °C 30.04in /  1017.2hPa NW 0.6mph /  1km/h 3mph /  4.8km/h 53.4% 0.00in /  0mm 0 W/m2
20:14 76.6 °F /  24.8 °C 58.7 °F /  14.8 °C 30.04in /  1017.2hPa NW 0.4mph /  0.6km/h 3mph /  4.8km/h 54% 0.00in /  0mm 0 W/m2
20:19 76.4 °F /  24.7 °C 58.6 °F /  14.8 °C 30.04in /  1017.2hPa Calm   3mph /  4.8km/h 54.2% 0.00in /  0mm 0 W/m2
20:24 76.2 °F /  24.6 °C 58.8 °F /  14.9 °C 30.04in /  1017.2hPa Calm   3mph /  4.8km/h 55% 0.00in /  0mm 0 W/m2
20:29 76 °F /  24.4 °C 58.7 °F /  14.8 °C 30.05in /  1017.5hPa Calm   3mph /  4.8km/h 55% 0.00in /  0mm 0 W/m2
20:34 75.8 °F /  24.3 °C 58.9 °F /  14.9 °C 30.05in /  1017.5hPa Calm   3mph /  4.8km/h 55.7% 0.00in /  0mm 0 W/m2
20:39 75.6 °F /  24.2 °C 58.9 °F /  14.9 °C 30.05in /  1017.5hPa Calm     56% 0.00in /  0mm 0 W/m2
20:44 75.5 °F /  24.2 °C 59.2 °F /  15.1 °C 30.05in /  1017.5hPa Calm     57% 0.00in /  0mm 0 W/m2
20:49 75.3 °F /  24.1 °C 59.6 °F /  15.3 °C 30.06in /  1017.8hPa NW 0.1mph /  0.2km/h 1mph /  1.6km/h 58.2% 0.00in /  0mm 0 W/m2
20:54 75.2 °F /  24 °C 59.9 °F /  15.5 °C 30.06in /  1017.8hPa Calm   1mph /  1.6km/h 59% 0.00in /  0mm 0 W/m2
20:59 75.1 °F /  23.9 °C 60 °F /  15.6 °C 30.07in /  1018.2hPa Calm   1mph /  1.6km/h 59.5% 0.00in /  0mm 0 W/m2
21:04 74.9 °F /  23.8 °C 60.1 °F /  15.6 °C 30.07in /  1018.2hPa Calm   1mph /  1.6km/h 60% 0.00in /  0mm 0 W/m2
21:09 74.8 °F /  23.8 °C 60.3 °F /  15.7 °C 30.07in /  1018.2hPa Calm     60.5% 0.00in /  0mm 0 W/m2
21:14 74.7 °F /  23.7 °C 60.3 °F /  15.7 °C 30.07in /  1018.2hPa Calm     61% 0.00in /  0mm 0 W/m2
21:19 74.5 °F /  23.6 °C 60.5 °F /  15.8 °C 30.08in /  1018.5hPa Calm     61.7% 0.00in /  0mm 0 W/m2
21:24 74.4 °F /  23.6 °C 60.6 °F /  15.9 °C 30.08in /  1018.5hPa Calm     62% 0.00in /  0mm 0 W/m2
21:29 74.3 °F /  23.5 °C 60.8 °F /  16 °C 30.08in /  1018.5hPa Calm     62.8% 0.00in /  0mm 0 W/m2
21:34 74.2 °F /  23.4 °C 61 °F /  16.1 °C 30.08in /  1018.5hPa NW 0.2mph /  0.3km/h 3mph /  4.8km/h 63.4% 0.00in /  0mm 0 W/m2
21:39 74.1 °F /  23.4 °C 61.3 °F /  16.3 °C 30.08in /  1018.5hPa Calm   3mph /  4.8km/h 64.3% 0.00in /  0mm 0 W/m2
21:44 74 °F /  23.3 °C 61.5 °F /  16.4 °C 30.08in /  1018.5hPa Calm   3mph /  4.8km/h 65% 0.00in /  0mm 0 W/m2
21:49 73.9 °F /  23.3 °C 61.6 °F /  16.4 °C 30.08in /  1018.5hPa NW 0.1mph /  0.2km/h 3mph /  4.8km/h 65.4% 0.00in /  0mm 0 W/m2
21:54 73.9 °F /  23.3 °C 61.8 °F /  16.6 °C 30.08in /  1018.5hPa NW 0.2mph /  0.3km/h 3mph /  4.8km/h 66% 0.00in /  0mm 0 W/m2
21:59 73.8 °F /  23.2 °C 61.7 °F /  16.5 °C 30.08in /  1018.5hPa NW 0.1mph /  0.2km/h 3mph /  4.8km/h 66% 0.00in /  0mm 0 W/m2
22:04 73.7 °F /  23.2 °C 61.6 °F /  16.4 °C 30.08in /  1018.5hPa Calm   3mph /  4.8km/h 66% 0.00in /  0mm 0 W/m2
22:09 73.6 °F /  23.1 °C 61.7 °F /  16.5 °C 30.09in /  1018.8hPa NW 0.5mph /  0.8km/h 4mph /  6.4km/h 66.3% 0.00in /  0mm 0 W/m2
22:14 73.5 °F /  23.1 °C 61.6 °F /  16.4 °C 30.09in /  1018.8hPa Calm   4mph /  6.4km/h 66.2% 0.00in /  0mm 0 W/m2
22:19 73.4 °F /  23 °C 61.4 °F /  16.3 °C 30.09in /  1018.8hPa NW 0.2mph /  0.3km/h 4mph /  6.4km/h 66% 0.00in /  0mm 0 W/m2
22:24 73.3 °F /  22.9 °C 61.4 °F /  16.3 °C 30.09in /  1018.8hPa NW 0.2mph /  0.3km/h 5mph /  8km/h 66.2% 0.00in /  0mm 0 W/m2
22:29 73.3 °F /  22.9 °C 61.3 °F /  16.3 °C 30.09in /  1018.8hPa Calm   5mph /  8km/h 66% 0.00in /  0mm 0 W/m2
22:34 73.2 °F /  22.9 °C 61.3 °F /  16.3 °C 30.09in /  1018.8hPa NW 0.4mph /  0.6km/h 5mph /  8km/h 66.3% 0.00in /  0mm 0 W/m2
22:39 73.1 °F /  22.8 °C 61.2 °F /  16.2 °C 30.09in /  1018.8hPa NW 0.2mph /  0.3km/h 4mph /  6.4km/h 66.4% 0.00in /  0mm 0 W/m2
22:44 73 °F /  22.8 °C 61 °F /  16.1 °C 30.09in /  1018.8hPa NW 0.2mph /  0.3km/h 4mph /  6.4km/h 66% 0.00in /  0mm 0 W/m2
22:49 72.9 °F /  22.7 °C 60.9 °F /  16.1 °C 30.09in /  1018.8hPa NW 0.5mph /  0.8km/h 4mph /  6.4km/h 66.1% 0.00in /  0mm 0 W/m2
22:54 72.8 °F /  22.7 °C 60.9 °F /  16.1 °C 30.09in /  1018.8hPa NW 0.1mph /  0.2km/h 4mph /  6.4km/h 66.1% 0.00in /  0mm 0 W/m2
22:59 72.7 °F /  22.6 °C 60.6 °F /  15.9 °C 30.10in /  1019.2hPa NW 0.7mph /  1.1km/h 4mph /  6.4km/h 65.7% 0.00in /  0mm 0 W/m2
23:04 72.6 °F /  22.6 °C 60.2 °F /  15.7 °C 30.10in /  1019.2hPa NW 0.1mph /  0.2km/h 4mph /  6.4km/h 65% 0.00in /  0mm 0 W/m2
23:09 72.5 °F /  22.5 °C 59.8 °F /  15.4 °C 30.10in /  1019.2hPa NW 1.7mph /  2.7km/h 5mph /  8km/h 64.3% 0.00in /  0mm 0 W/m2
23:14 72.5 °F /  22.5 °C 59.6 °F /  15.3 °C 30.10in /  1019.2hPa NW 0.9mph /  1.4km/h 6mph /  9.7km/h 64% 0.00in /  0mm 0 W/m2
23:19 72.4 °F /  22.4 °C 59.2 °F /  15.1 °C 30.10in /  1019.2hPa NW 1.6mph /  2.6km/h 8mph /  12.9km/h 63.2% 0.00in /  0mm 0 W/m2
23:24 72.4 °F /  22.4 °C 59.1 °F /  15.1 °C 30.10in /  1019.2hPa NW 0.8mph /  1.3km/h 8mph /  12.9km/h 63% 0.00in /  0mm 0 W/m2
23:29 72.4 °F /  22.4 °C 59 °F /  15 °C 30.10in /  1019.2hPa NW 0.7mph /  1.1km/h 8mph /  12.9km/h 62.8% 0.00in /  0mm 0 W/m2
23:34 72.4 °F /  22.4 °C 58.7 °F /  14.8 °C 30.10in /  1019.2hPa NW 0.3mph /  0.5km/h 8mph /  12.9km/h 62% 0.00in /  0mm 0 W/m2
23:39 72.4 °F /  22.4 °C 58.7 °F /  14.8 °C 30.10in /  1019.2hPa NW 0.7mph /  1.1km/h 6mph /  9.7km/h 62% 0.00in /  0mm 0 W/m2
23:44 72.4 °F /  22.4 °C 58.6 °F /  14.8 °C 30.10in /  1019.2hPa NW 0.7mph /  1.1km/h 6mph /  9.7km/h 61.8% 0.00in /  0mm 0 W/m2
23:49 72.3 °F /  22.4 °C 58.1 °F /  14.5 °C 30.10in /  1019.2hPa NW 1mph /  1.6km/h 6mph /  9.7km/h 61% 0.00in /  0mm 0 W/m2
23:54 72.3 °F /  22.4 °C 58.3 °F /  14.6 °C 30.11in /  1019.5hPa NW 0.4mph /  0.6km/h 6mph /  9.7km/h 61.4% 0.00in /  0mm 0 W/m2
23:59 72.2 °F /  22.3 °C 58.2 °F /  14.6 °C 30.10in /  1019.2hPa NW 0.5mph /  0.8km/h 6mph /  9.7km/h 61.3% 0.00in /  0mm 0 W/m2
Hartford County Weather
Compliments of Weather Underground - 4 mb